Time;durP1;ratioP1;P1;durP2;ratioP2;P2;SDS_P1;SDS_P2;PMS_P1;PMS_P2;Temp;Humidity;BMP_temperature;BMP_pressure;BME280_temperature;BME280_humidity;BME280_pressure;Samples;Min_cycle;Max_cycle;Signal;HPM_P1;HPM_P2
2023/09/11 00:04:08;;;;;;;3.55;2.67;;;;;;;24.60;53.29;101313.19;16116756;19;129752;-62
2023/09/11 00:09:30;;;;;;;6.25;2.90;;;;;;;24.60;53.40;101307.59;16122268;19;130532;-62
2023/09/11 00:14:52;;;;;;;5.45;2.95;;;;;;;24.60;53.14;101301.19;16125658;19;132005;-62
2023/09/11 00:20:14;;;;;;;2.75;2.47;;;;;;;24.60;53.03;101295.59;16125045;19;131006;-61
2023/09/11 00:25:36;;;;;;;4.65;2.63;;;;;;;24.60;53.23;101296.41;16119446;19;129711;-61
2023/09/11 00:30:59;;;;;;;4.18;2.53;;;;;;;24.58;53.17;101296.69;16119061;19;129577;-61
2023/09/11 00:36:21;;;;;;;6.38;2.83;;;;;;;24.56;53.40;101298.94;16115407;19;131042;-61
2023/09/11 00:41:43;;;;;;;5.13;2.83;;;;;;;24.57;53.06;101289.44;16118101;19;129468;-61
2023/09/11 00:47:06;;;;;;;4.03;2.95;;;;;;;24.57;53.13;101286.63;16119415;19;130360;-61
2023/09/11 00:52:28;;;;;;;3.35;2.53;;;;;;;24.56;53.34;101276.56;16124247;19;129819;-61
2023/09/11 00:57:50;;;;;;;4.20;2.63;;;;;;;24.56;53.32;101265.38;16125829;19;134385;-61
2023/09/11 01:03:12;;;;;;;2.92;2.33;;;;;;;24.55;53.39;101272.06;16121516;19;129447;-61
2023/09/11 01:08:35;;;;;;;3.15;2.78;;;;;;;24.54;53.46;101262.00;16121276;19;130984;-61
2023/09/11 01:14:00;;;;;;;3.92;2.50;;;;;;;24.53;53.17;101254.72;16116809;19;130742;-61
2023/09/11 01:19:50;;;;;;;3.92;2.63;;;;;;;24.54;53.13;101259.22;16118831;19;129540;-60
2023/09/11 01:25:38;;;;;;;3.72;2.50;;;;;;;24.53;53.04;101254.72;16119320;19;129817;-60
2023/09/11 01:31:01;;;;;;;3.65;2.50;;;;;;;24.51;53.14;101248.56;16122144;19;129649;-61
2023/09/11 01:36:23;;;;;;;4.68;2.55;;;;;;;24.50;53.00;101246.88;16116826;19;130295;-61
2023/09/11 01:41:47;;;;;;;3.83;2.42;;;;;;;24.51;53.04;101237.38;16119292;19;130345;-61
2023/09/11 01:47:13;;;;;;;4.33;2.40;;;;;;;24.51;53.30;101236.56;16121373;19;130102;-61
2023/09/11 01:52:35;;;;;;;4.80;2.40;;;;;;;24.50;53.14;101246.88;16115820;19;131051;-61
2023/09/11 01:57:57;;;;;;;2.70;2.50;;;;;;;24.49;53.38;101242.44;16120809;19;129715;-61
2023/09/11 02:03:19;;;;;;;2.38;2.17;;;;;;;24.49;53.23;101244.38;16118521;19;129357;-61
2023/09/11 02:08:42;;;;;;;3.25;2.38;;;;;;;24.48;53.32;101249.16;16114761;19;129996;-61
2023/09/11 02:14:04;;;;;;;2.47;2.28;;;;;;;24.48;53.17;101245.50;16113339;19;132999;-61
2023/09/11 02:19:26;;;;;;;2.75;2.25;;;;;;;24.48;53.56;101256.69;16111972;19;130979;-55
2023/09/11 02:24:48;;;;;;;2.35;2.03;;;;;;;24.49;53.32;101261.16;16111574;19;129433;-61
2023/09/11 02:30:11;;;;;;;3.03;2.50;;;;;;;24.47;53.44;101255.88;16116328;19;131408;-61
2023/09/11 02:35:33;;;;;;;2.63;2.20;;;;;;;24.47;53.53;101252.22;16115396;19;129436;-61
2023/09/11 02:40:55;;;;;;;3.38;2.35;;;;;;;24.47;53.18;101253.06;16113173;19;129471;-61
2023/09/11 02:46:30;;;;;;;3.07;2.30;;;;;;;24.46;53.25;101245.78;16114118;19;134269;-60
2023/09/11 02:51:51;;;;;;;2.55;2.35;;;;;;;24.46;53.48;101250.53;16116242;19;130491;-61
2023/09/11 02:57:14;;;;;;;2.22;2.03;;;;;;;24.45;53.37;101235.72;16117307;19;131564;-61
2023/09/11 03:02:35;;;;;;;2.40;2.10;;;;;;;24.45;53.20;101227.31;16118056;19;130079;-61
2023/09/11 03:08:01;;;;;;;3.25;2.00;;;;;;;24.45;53.00;101223.69;16116514;19;130988;-61
2023/09/11 03:13:23;;;;;;;2.40;1.88;;;;;;;24.44;53.39;101214.47;16114119;19;129512;-61
2023/09/11 03:18:45;;;;;;;2.83;1.90;;;;;;;24.42;53.43;101208.31;16114477;19;130203;-61
2023/09/11 03:24:07;;;;;;;2.78;2.28;;;;;;;24.42;53.06;101206.38;16116020;19;130628;-61
2023/09/11 03:29:29;;;;;;;2.47;2.17;;;;;;;24.42;53.11;101199.91;16112312;19;134088;-61
2023/09/11 03:34:54;;;;;;;2.80;2.10;;;;;;;24.42;53.35;101199.91;16112449;19;131141;-61
2023/09/11 03:40:16;;;;;;;2.40;2.13;;;;;;;24.41;53.27;101199.09;16125175;19;130685;-61
2023/09/11 03:45:38;;;;;;;2.40;1.92;;;;;;;24.41;53.22;101192.63;16128258;19;130506;-61
2023/09/11 03:51:00;;;;;;;2.88;1.80;;;;;;;24.41;53.20;101190.69;16127678;19;129297;-61
2023/09/11 03:56:22;;;;;;;2.75;1.90;;;;;;;24.40;53.28;101191.81;16129342;19;131177;-61
2023/09/11 04:01:44;;;;;;;2.63;2.08;;;;;;;24.40;53.38;101186.22;16127477;19;134083;-61
2023/09/11 04:07:06;;;;;;;1.83;1.60;;;;;;;24.40;53.49;101182.56;16126914;19;130592;-61
2023/09/11 04:12:29;;;;;;;2.17;1.98;;;;;;;24.39;53.18;101176.16;16125950;19;129541;-61
2023/09/11 04:17:54;;;;;;;2.15;1.95;;;;;;;24.39;53.16;101181.75;16129263;19;129559;-60
2023/09/11 04:23:16;;;;;;;2.85;2.03;;;;;;;24.39;53.18;101184.53;16126798;19;130458;-61
2023/09/11 04:28:38;;;;;;;2.20;1.85;;;;;;;24.39;53.03;101183.69;16130170;19;130522;-61
2023/09/11 04:34:01;;;;;;;2.20;1.85;;;;;;;24.38;53.36;101188.47;16147756;19;129612;-60
2023/09/11 04:39:23;;;;;;;2.10;1.90;;;;;;;24.38;53.35;101194.06;16209245;19;129451;-60
2023/09/11 04:44:45;;;;;;;3.67;2.08;;;;;;;24.37;52.93;101197.97;16206364;19;129434;-60
2023/09/11 04:50:08;;;;;;;2.25;2.05;;;;;;;24.38;53.02;101198.78;16203894;19;129755;-60
2023/09/11 04:55:30;;;;;;;2.05;1.85;;;;;;;24.37;53.17;101191.53;16208954;19;134188;-61
2023/09/11 05:00:53;;;;;;;1.88;1.63;;;;;;;24.36;53.00;101187.88;16206500;19;130741;-61
2023/09/11 05:06:15;;;;;;;3.80;2.00;;;;;;;24.37;52.98;101197.13;16178001;19;130300;-60
2023/09/11 05:11:37;;;;;;;2.92;1.77;;;;;;;24.35;53.11;101203.00;16160069;19;131969;-61
2023/09/11 05:16:59;;;;;;;3.95;2.05;;;;;;;24.33;53.00;101210.00;16158328;19;130069;-62
2023/09/11 05:22:21;;;;;;;7.35;4.10;;;;;;;24.29;52.27;101209.72;16146708;19;129809;-56
2023/09/11 05:27:45;;;;;;;11.60;5.53;;;;;;;24.26;51.15;101213.06;16148397;19;129685;-58
2023/09/11 05:33:06;;;;;;;18.52;6.45;;;;;;;24.21;50.58;101216.66;16131416;19;130027;-59
2023/09/11 05:38:28;;;;;;;16.70;6.88;;;;;;;24.20;50.37;101214.13;16109497;19;130592;-59
2023/09/11 05:43:51;;;;;;;10.80;5.88;;;;;;;24.18;50.01;101208.00;16113068;19;130877;-59
2023/09/11 05:49:13;;;;;;;9.95;5.55;;;;;;;24.20;50.19;101209.38;16119426;19;130822;-60
2023/09/11 05:54:35;;;;;;;12.15;4.90;;;;;;;24.25;50.18;101217.78;16115713;19;131533;-60
2023/09/11 05:59:57;;;;;;;10.57;5.18;;;;;;;24.29;49.84;101232.06;16114730;19;130089;-62
2023/09/11 06:05:23;;;;;;;14.48;5.78;;;;;;;24.33;50.21;101240.75;16113353;19;131087;-58
2023/09/11 06:10:45;;;;;;;9.82;4.78;;;;;;;24.30;49.87;101224.50;16109652;19;134053;-61
2023/09/11 06:16:08;;;;;;;10.40;4.95;;;;;;;24.28;49.92;101233.19;16111542;19;129615;-68
2023/09/11 06:21:30;;;;;;;10.63;5.10;;;;;;;24.27;49.95;101249.09;16112387;19;131800;-64
2023/09/11 06:27:03;;;;;;;10.23;5.10;;;;;;;24.29;50.00;101248.00;16117901;19;129905;-63
2023/09/11 06:32:25;;;;;;;13.52;5.75;;;;;;;24.27;49.78;101246.31;16116176;19;129529;-65
2023/09/11 06:37:48;;;;;;;12.80;5.03;;;;;;;24.26;50.03;101247.44;16116048;19;129712;-65
2023/09/11 06:43:10;;;;;;;12.50;4.70;;;;;;;24.26;50.16;101252.19;16111213;19;134575;-67
2023/09/11 06:48:32;;;;;;;11.88;4.93;;;;;;;24.26;50.30;101244.63;16107780;19;130493;-68
2023/09/11 06:53:54;;;;;;;7.22;4.97;;;;;;;24.26;49.90;101253.03;16112544;19;129858;-68
2023/09/11 06:59:16;;;;;;;7.07;4.68;;;;;;;24.26;49.98;101253.03;16116014;19;130527;-67
2023/09/11 07:04:38;;;;;;;7.68;4.43;;;;;;;24.27;50.00;101239.91;16114463;19;129633;-70
2023/09/11 07:10:00;;;;;;;13.52;4.88;;;;;;;24.27;49.83;101240.72;16120950;19;129510;-70
2023/09/11 07:15:22;;;;;;;6.82;4.50;;;;;;;24.27;50.02;101225.91;16117371;19;129892;-66
2023/09/11 07:20:46;;;;;;;9.43;4.78;;;;;;;24.27;50.16;101232.34;16114515;19;130682;-70
2023/09/11 07:26:09;;;;;;;8.05;4.63;;;;;;;24.29;50.15;101234.00;16114205;19;130019;-67
2023/09/11 07:31:32;;;;;;;7.85;4.20;;;;;;;24.32;50.23;101247.44;16117350;19;129383;-62
2023/09/11 07:36:54;;;;;;;8.45;4.82;;;;;;;24.33;50.27;101247.16;16115331;19;129743;-69
2023/09/11 07:42:16;;;;;;;10.35;4.22;;;;;;;24.35;50.18;101272.06;16113606;19;130544;-68
2023/09/11 07:47:38;;;;;;;12.07;5.05;;;;;;;24.36;50.17;101262.56;16115198;19;129715;-63
2023/09/11 07:53:00;;;;;;;9.35;4.38;;;;;;;24.38;50.24;101260.31;16112728;19;130332;-68
2023/09/11 07:58:22;;;;;;;7.57;4.35;;;;;;;24.37;50.37;101253.88;16111909;19;129511;-62
2023/09/11 08:03:47;;;;;;;7.88;4.57;;;;;;;24.37;50.47;101267.88;16115639;19;129900;-64
2023/09/11 08:09:10;;;;;;;7.30;4.38;;;;;;;24.39;50.50;101278.75;16114301;19;130250;-66
2023/09/11 08:14:32;;;;;;;7.88;4.50;;;;;;;24.40;50.51;101280.44;16114540;19;129572;-61
2023/09/11 08:19:53;;;;;;;8.68;4.60;;;;;;;24.40;50.18;101272.06;16112211;19;129809;-59
2023/09/11 08:25:16;;;;;;;6.60;3.90;;;;;;;24.41;50.57;101274.59;16116762;19;129547;-63
2023/09/11 08:30:37;;;;;;;9.95;4.63;;;;;;;24.41;50.33;101268.13;16125956;19;130437;-63
2023/09/11 08:36:02;;;;;;;9.80;4.65;;;;;;;24.41;50.60;101276.53;16125937;19;131718;-67
2023/09/11 08:41:25;;;;;;;6.18;4.32;;;;;;;24.41;50.43;101270.94;16123456;19;129547;-64
2023/09/11 08:46:50;;;;;;;7.45;3.95;;;;;;;24.42;50.84;101289.41;16123877;19;129777;-57
2023/09/11 08:52:14;;;;;;;7.80;4.37;;;;;;;24.43;50.53;101279.91;16128130;19;130875;-56
2023/09/11 08:57:39;;;;;;;9.90;4.40;;;;;;;24.47;50.44;101282.97;16127849;19;130690;-61
2023/09/11 09:03:02;;;;;;;5.70;4.18;;;;;;;24.51;50.54;101292.50;16128235;19;130020;-56
2023/09/11 09:08:26;;;;;;;4.80;3.65;;;;;;;24.54;50.67;101276.00;16129432;19;129375;-55
2023/09/11 09:13:48;;;;;;;8.48;4.22;;;;;;;24.58;50.56;101291.09;16128857;19;129895;-53
2023/09/11 09:19:10;;;;;;;5.60;3.55;;;;;;;24.62;50.38;101288.59;16125497;19;133407;-71
2023/09/11 09:24:37;;;;;;;6.13;4.53;;;;;;;24.66;50.55;101289.72;16125080;19;132561;-58
2023/09/11 09:29:59;;;;;;;5.00;3.63;;;;;;;24.68;50.37;101293.06;16126486;19;130395;-57
2023/09/11 09:35:43;;;;;;;5.90;4.13;;;;;;;24.71;50.52;101286.06;16122169;19;128928;-56
2023/09/11 09:41:11;;;;;;;5.18;3.63;;;;;;;24.73;50.40;101278.25;16123448;19;129653;-58
2023/09/11 09:46:41;;;;;;;6.13;3.88;;;;;;;24.76;50.23;101271.25;16118539;19;130540;-56
2023/09/11 09:52:03;;;;;;;6.28;4.30;;;;;;;24.76;50.58;101279.63;16120108;19;129434;-59
2023/09/11 09:57:27;;;;;;;7.28;4.10;;;;;;;24.76;50.56;101285.22;16123453;19;130452;-58
2023/09/11 10:02:55;;;;;;;6.55;4.00;;;;;;;24.76;50.55;101283.25;16122535;19;130750;-58
2023/09/11 10:08:17;;;;;;;6.72;3.75;;;;;;;24.75;50.54;101264.78;16118703;19;129725;-59
2023/09/11 10:13:42;;;;;;;4.57;3.45;;;;;;;24.77;50.34;101268.16;16117010;19;129539;-59
2023/09/11 10:19:04;;;;;;;5.75;3.53;;;;;;;24.77;50.59;101268.16;16114744;19;130997;-59
2023/09/11 10:24:26;;;;;;;5.25;3.38;;;;;;;24.77;50.41;101270.94;16121817;19;130306;-59
2023/09/11 10:29:54;;;;;;;5.38;3.88;;;;;;;24.79;50.68;101265.91;16119874;19;129224;-57
2023/09/11 10:35:16;;;;;;;6.32;3.78;;;;;;;24.79;50.34;101260.31;16118438;19;129394;-57
2023/09/11 10:40:39;;;;;;;5.88;3.83;;;;;;;24.79;50.20;101254.72;16121225;19;130900;-59
2023/09/11 10:46:16;;;;;;;10.73;3.60;;;;;;;24.80;50.13;101256.41;16110022;19;130591;-58
2023/09/11 10:51:38;;;;;;;6.15;3.67;;;;;;;24.78;50.21;101255.03;16111351;19;130345;-58
2023/09/11 10:57:00;;;;;;;6.53;3.80;;;;;;;24.78;50.51;101249.44;16119345;19;130448;-59
2023/09/11 11:02:22;;;;;;;4.68;3.63;;;;;;;24.78;50.21;101253.03;16118318;19;129361;-58
2023/09/11 11:07:48;;;;;;;6.68;3.95;;;;;;;24.79;50.13;101251.94;16114270;19;130697;-58
2023/09/11 11:13:11;;;;;;;6.45;3.42;;;;;;;24.79;50.38;101240.75;16122866;19;131452;-58
2023/09/11 11:18:33;;;;;;;5.03;3.60;;;;;;;24.79;50.36;101251.94;16114791;19;131845;-58
2023/09/11 11:24:00;;;;;;;5.15;3.45;;;;;;;24.80;50.08;101245.22;16114060;19;129762;-58
2023/09/11 11:29:29;;;;;;;5.88;3.65;;;;;;;24.81;50.31;101237.66;16113633;19;130290;-58
2023/09/11 11:34:51;;;;;;;6.38;3.55;;;;;;;24.80;50.44;101233.19;16116578;19;131469;-58
2023/09/11 11:40:13;;;;;;;4.47;3.65;;;;;;;24.81;50.21;101235.69;16118699;19;129737;-58
2023/09/11 11:45:44;;;;;;;5.60;3.35;;;;;;;24.81;50.09;101230.09;16114326;19;130778;-58
2023/09/11 11:51:06;;;;;;;4.57;3.25;;;;;;;24.81;50.38;101227.31;16116802;19;131919;-58
2023/09/11 11:56:28;;;;;;;4.40;3.17;;;;;;;24.81;50.10;101226.47;16116352;19;131244;-59
2023/09/11 12:01:50;;;;;;;5.28;3.67;;;;;;;24.82;49.97;101245.78;16123819;19;130936;-58
2023/09/11 12:07:13;;;;;;;5.43;3.47;;;;;;;24.82;50.25;101231.78;16124665;19;130559;-58
2023/09/11 12:12:46;;;;;;;5.82;3.25;;;;;;;24.83;50.20;101233.47;16125919;19;129429;-59
2023/09/11 12:18:12;;;;;;;5.63;2.95;;;;;;;24.84;50.04;101229.56;16126400;19;130846;-59
2023/09/11 12:23:34;;;;;;;6.10;3.60;;;;;;;24.84;50.09;101223.09;16126049;19;130927;-58
2023/09/11 12:28:57;;;;;;;3.95;3.10;;;;;;;24.84;50.04;101237.94;16124763;19;129234;-58
2023/09/11 12:34:19;;;;;;;7.07;3.78;;;;;;;24.85;50.22;101239.63;16127682;19;129806;-58
2023/09/11 12:39:41;;;;;;;4.38;3.30;;;;;;;24.85;50.26;101242.44;16127349;19;131397;-59
2023/09/11 12:45:04;;;;;;;7.95;3.85;;;;;;;24.86;49.81;101235.69;16122043;19;129640;-58
2023/09/11 12:50:27;;;;;;;5.35;3.30;;;;;;;24.86;50.04;101216.09;16123983;19;129588;-58
2023/09/11 12:55:50;;;;;;;3.58;3.28;;;;;;;24.87;50.21;101212.19;16129516;19;129900;-59
2023/09/11 13:01:12;;;;;;;4.03;3.10;;;;;;;24.88;49.85;101229.81;16121915;19;132204;-59
2023/09/11 13:06:34;;;;;;;4.45;3.25;;;;;;;24.90;49.77;101221.16;16124423;19;129959;-63
2023/09/11 13:11:56;;;;;;;5.85;3.50;;;;;;;24.88;49.87;101219.47;16121984;19;129859;-60
2023/09/11 13:17:18;;;;;;;4.00;3.05;;;;;;;24.88;50.17;101227.88;16119989;19;131381;-60
2023/09/11 13:22:41;;;;;;;4.30;2.80;;;;;;;24.90;49.81;101222.03;16121899;19;129742;-60
2023/09/11 13:28:04;;;;;;;3.38;3.08;;;;;;;24.92;49.74;101219.78;16105072;19;131148;-62
2023/09/11 13:33:26;;;;;;;4.40;2.67;;;;;;;24.92;49.84;101219.78;16123094;19;133581;-57
2023/09/11 13:38:48;;;;;;;3.03;2.72;;;;;;;24.93;49.96;101213.03;16125295;19;129680;-59
2023/09/11 13:44:10;;;;;;;5.05;2.70;;;;;;;24.94;49.94;101199.91;16124873;19;129151;-59
2023/09/11 13:49:32;;;;;;;5.28;3.30;;;;;;;24.95;49.93;101201.56;16120813;19;129706;-59
2023/09/11 13:54:54;;;;;;;3.15;2.75;;;;;;;24.94;49.70;101206.31;16123231;19;130386;-60
2023/09/11 14:00:17;;;;;;;3.70;2.90;;;;;;;24.95;49.60;101195.97;16120175;19;131610;-59
2023/09/11 14:05:40;;;;;;;4.43;2.97;;;;;;;24.96;49.80;101189.25;16119363;19;130208;-59
2023/09/11 14:11:08;;;;;;;3.50;2.83;;;;;;;24.98;49.85;101215.00;16117192;19;130772;-60
2023/09/11 14:16:30;;;;;;;5.32;2.97;;;;;;;24.98;49.47;101213.03;16117066;19;130244;-60
2023/09/11 14:21:52;;;;;;;5.88;3.47;;;;;;;24.99;49.66;101225.91;16115129;19;130779;-62
2023/09/11 14:27:15;;;;;;;4.95;2.97;;;;;;;24.99;49.69;101231.50;16117424;19;129908;-59
2023/09/11 14:32:40;;;;;;;5.82;3.33;;;;;;;25.00;49.40;101249.13;16114507;19;131694;-58
2023/09/11 14:38:03;;;;;;;6.25;3.15;;;;;;;25.00;49.53;101252.78;16118718;19;130240;-59
2023/09/11 14:43:25;;;;;;;4.53;3.03;;;;;;;25.01;49.83;101245.22;16116206;19;130416;-59
2023/09/11 14:48:54;;;;;;;4.30;3.38;;;;;;;25.03;49.73;101248.56;16112593;19;129664;-59
2023/09/11 14:54:16;;;;;;;4.38;3.10;;;;;;;25.04;49.68;101253.06;16112121;19;130666;-59
2023/09/11 14:59:38;;;;;;;4.53;3.08;;;;;;;25.04;49.40;101255.84;16114121;19;129550;-59
2023/09/11 15:05:01;;;;;;;4.90;2.97;;;;;;;25.04;49.09;101244.66;16111196;19;131547;-58
2023/09/11 15:10:23;;;;;;;4.07;3.05;;;;;;;25.00;49.22;101222.00;16111547;19;129804;-59
2023/09/11 15:15:48;;;;;;;5.22;3.00;;;;;;;25.01;48.72;101234.00;16110376;19;131782;-59
2023/09/11 15:21:12;;;;;;;4.65;2.95;;;;;;;25.01;49.32;101223.69;16118431;19;129763;-58
2023/09/11 15:26:35;;;;;;;7.82;3.05;;;;;;;25.04;48.86;101205.47;16115722;19;129753;-58
2023/09/11 15:31:58;;;;;;;6.53;3.08;;;;;;;25.07;49.31;101207.72;16116149;19;132323;-58
2023/09/11 15:37:36;;;;;;;6.63;3.00;;;;;;;25.11;48.85;101193.97;16128363;19;129596;-58
2023/09/11 15:42:57;;;;;;;;;;;;;;;25.07;48.94;101185.31;16128831;19;130965;-58
2023/09/11 15:48:19;;;;;;;9.13;3.20;;;;;;;25.08;48.64;101188.94;16124575;19;129792;-59
2023/09/11 15:53:41;;;;;;;15.20;3.13;;;;;;;25.06;48.13;101169.63;16130400;19;129920;-59
2023/09/11 15:59:03;;;;;;;6.03;3.38;;;;;;;25.03;47.99;101171.06;16126998;19;131031;-58
2023/09/11 16:04:25;;;;;;;13.43;3.88;;;;;;;24.94;46.04;101177.50;16126714;19;131472;-51
2023/09/11 16:09:48;;;;;;;9.02;4.20;;;;;;;24.81;44.83;101179.75;16128055;19;129765;-52
2023/09/11 16:15:11;;;;;;;7.70;3.85;;;;;;;24.78;44.59;101180.31;16127787;19;130938;-53
2023/09/11 16:20:35;;;;;;;7.47;3.85;;;;;;;24.76;43.71;101170.53;16124534;19;130577;-58
2023/09/11 16:25:57;;;;;;;5.68;3.33;;;;;;;24.74;43.78;101168.00;16121991;19;129542;-57
2023/09/11 16:31:19;;;;;;;5.90;3.72;;;;;;;24.69;43.19;101157.66;16122561;19;131149;-57
2023/09/11 16:36:41;;;;;;;4.72;3.30;;;;;;;24.69;43.38;101159.63;16122110;19;132085;-57
2023/09/11 16:42:03;;;;;;;6.68;3.30;;;;;;;24.66;43.17;101163.84;16122015;19;129508;-55
2023/09/11 16:47:29;;;;;;;5.60;3.08;;;;;;;24.67;43.29;101159.06;16121166;19;131448;-56
2023/09/11 16:52:52;;;;;;;10.07;2.85;;;;;;;24.69;43.47;101177.22;16123114;19;130376;-57
2023/09/11 16:58:14;;;;;;;9.82;3.10;;;;;;;24.74;44.12;101179.19;16122189;19;130049;-56
2023/09/11 17:03:36;;;;;;;6.35;3.03;;;;;;;24.76;43.81;101179.75;16120087;19;130583;-57
2023/09/11 17:08:58;;;;;;;4.43;2.80;;;;;;;24.77;43.75;101189.81;16122720;19;131522;-53
2023/09/11 17:14:20;;;;;;;6.38;3.28;;;;;;;24.79;43.93;101186.75;16118499;19;130885;-59
2023/09/11 17:19:42;;;;;;;10.65;3.42;;;;;;;24.80;43.81;101175.25;16124387;19;131173;-53
2023/09/11 17:25:04;;;;;;;5.05;3.28;;;;;;;24.80;43.75;101164.06;16116473;19;129931;-56
2023/09/11 17:30:26;;;;;;;9.27;3.20;;;;;;;24.84;43.69;101195.97;16121781;19;130073;-49
2023/09/11 17:35:48;;;;;;;5.35;3.33;;;;;;;24.91;43.80;101178.06;16132985;19;131955;-56
2023/09/11 17:41:10;;;;;;;5.07;2.85;;;;;;;24.87;43.59;101156.22;16127416;19;131060;-52
2023/09/11 17:46:32;;;;;;;6.03;3.40;;;;;;;24.80;44.22;101127.69;16125399;19;129480;-55
2023/09/11 17:51:54;;;;;;;7.90;3.65;;;;;;;24.74;45.12;101140.00;16124620;19;131748;-56
2023/09/11 17:57:16;;;;;;;9.25;3.67;;;;;;;24.63;45.86;101166.34;16124058;19;130854;-54
2023/09/11 18:02:38;;;;;;;8.07;3.70;;;;;;;24.57;45.91;101219.50;16119588;19;130390;-54
2023/09/11 18:08:00;;;;;;;17.65;5.55;;;;;;;24.59;46.85;101255.56;16121944;19;130320;-60
2023/09/11 18:13:22;;;;;;;15.85;6.50;;;;;;;24.47;47.57;101269.84;16122443;19;129149;-58
2023/09/11 18:18:44;;;;;;;12.00;5.72;;;;;;;24.52;47.67;101263.41;16129621;19;129475;-52
2023/09/11 18:24:06;;;;;;;10.75;5.38;;;;;;;24.63;47.83;101256.69;16135477;19;130148;-54
2023/09/11 18:29:28;;;;;;;11.60;5.28;;;;;;;24.72;48.08;101220.63;16119828;19;129284;-60
2023/09/11 18:34:50;;;;;;;14.48;5.55;;;;;;;24.77;47.89;101202.97;16121997;19;134976;-50
2023/09/11 18:40:12;;;;;;;12.70;4.93;;;;;;;24.80;48.00;101197.66;16110113;19;131700;-53
2023/09/11 18:45:35;;;;;;;8.18;4.22;;;;;;;24.86;47.95;101196.50;16108884;19;129600;-58
2023/09/11 18:50:57;;;;;;;18.48;5.57;;;;;;;24.86;48.19;101213.28;16109060;19;130408;-54
2023/09/11 18:56:19;;;;;;;17.25;5.38;;;;;;;24.81;48.35;101218.91;16112904;19;129649;-57
2023/09/11 19:01:41;;;;;;;7.93;4.60;;;;;;;24.77;48.59;101228.16;16113275;19;130443;-52
2023/09/11 19:07:03;;;;;;;15.02;5.88;;;;;;;24.74;48.96;101229.53;16114622;19;129383;-54
2023/09/11 19:12:25;;;;;;;12.18;5.63;;;;;;;24.73;49.28;101239.91;16114990;19;130596;-57
2023/09/11 19:17:48;;;;;;;11.13;4.72;;;;;;;24.72;49.35;101237.41;16113657;19;130458;-59
2023/09/11 19:23:10;;;;;;;11.63;4.68;;;;;;;24.72;49.33;101243.81;16117345;19;129636;-55
2023/09/11 19:28:32;;;;;;;13.55;4.50;;;;;;;24.72;49.47;101245.78;16114812;19;129672;-52
2023/09/11 19:33:54;;;;;;;10.13;4.78;;;;;;;24.70;49.41;101257.25;16115731;19;129423;-54
2023/09/11 19:39:16;;;;;;;8.15;5.28;;;;;;;24.67;49.54;101268.16;16113907;19;131368;-55
2023/09/11 19:44:38;;;;;;;9.85;4.50;;;;;;;24.65;49.55;101282.44;16116562;19;129494;-49
2023/09/11 19:50:00;;;;;;;22.73;5.35;;;;;;;24.65;49.80;101287.19;16113423;19;129907;-54
2023/09/11 19:55:22;;;;;;;14.55;4.88;;;;;;;24.64;49.75;101285.50;16118010;19;130703;-57
2023/09/11 20:00:44;;;;;;;15.82;4.65;;;;;;;24.66;49.71;101278.53;16113755;19;129557;-57
2023/09/11 20:06:06;;;;;;;10.38;4.72;;;;;;;24.69;49.68;101277.13;16112469;19;130502;-55
2023/09/11 20:11:29;;;;;;;10.55;4.90;;;;;;;24.70;49.68;101278.81;16112492;19;129376;-56
2023/09/11 20:16:51;;;;;;;8.80;4.85;;;;;;;24.71;49.65;101288.88;16115534;19;132887;-59
2023/09/11 20:22:13;;;;;;;13.15;5.10;;;;;;;24.70;49.71;101290.00;16123981;19;129442;-57
2023/09/11 20:27:35;;;;;;;10.32;5.22;;;;;;;24.70;49.67;101290.81;16129321;19;128958;-57
2023/09/11 20:32:57;;;;;;;7.03;4.15;;;;;;;24.70;50.23;101290.00;16125562;19;129586;-60
2023/09/11 20:38:20;;;;;;;9.82;4.05;;;;;;;24.72;50.40;101288.59;16128569;19;129532;-57
2023/09/11 20:43:42;;;;;;;8.27;4.20;;;;;;;24.77;50.38;101286.91;16126544;19;130943;-58
2023/09/11 20:49:07;;;;;;;7.78;3.90;;;;;;;24.81;50.37;101290.81;16126237;19;129780;-59
2023/09/11 20:54:30;;;;;;;10.38;4.78;;;;;;;24.83;50.57;101278.25;16124947;19;131478;-60
2023/09/11 20:59:52;;;;;;;10.70;4.18;;;;;;;24.86;50.54;101268.44;16126204;19;130060;-65
2023/09/11 21:05:14;;;;;;;7.88;4.07;;;;;;;24.90;50.66;101275.19;16125831;19;129952;-62
2023/09/11 21:10:36;;;;;;;6.30;3.80;;;;;;;24.92;50.31;101261.75;16123335;19;129690;-64
2023/09/11 21:15:58;;;;;;;6.10;3.42;;;;;;;24.94;50.53;101270.69;16125683;19;131233;-57
2023/09/11 21:21:21;;;;;;;8.45;3.88;;;;;;;24.96;50.63;101265.66;16118131;19;129566;-58
2023/09/11 21:26:43;;;;;;;7.10;3.95;;;;;;;24.97;50.55;101264.53;16124642;19;131136;-60
2023/09/11 21:32:05;;;;;;;11.93;3.78;;;;;;;24.99;50.48;101281.03;16115878;19;131244;-57
2023/09/11 21:37:27;;;;;;;9.88;3.47;;;;;;;24.98;50.44;101269.00;16115528;19;131460;-58
2023/09/11 21:42:49;;;;;;;6.68;4.07;;;;;;;24.98;50.25;101277.41;16119857;19;131173;-58
2023/09/11 21:48:11;;;;;;;8.10;4.10;;;;;;;24.97;50.29;101272.09;16116144;19;131311;-57
2023/09/11 21:53:33;;;;;;;11.80;4.45;;;;;;;24.95;50.16;101269.56;16115769;19;129090;-58
2023/09/11 21:58:55;;;;;;;5.10;3.67;;;;;;;24.93;49.96;101268.19;16119035;19;130470;-58
2023/09/11 22:04:17;;;;;;;8.35;4.13;;;;;;;24.91;50.12;101256.44;16115560;19;129780;-58
2023/09/11 22:09:39;;;;;;;8.25;3.63;;;;;;;24.87;50.18;101251.34;16116535;19;131320;-57
2023/09/11 22:15:03;;;;;;;9.43;4.10;;;;;;;24.86;50.30;101248.84;16116136;19;131164;-57
2023/09/11 22:20:25;;;;;;;5.38;3.55;;;;;;;24.84;49.97;101237.94;16114973;19;130926;-58
2023/09/11 22:25:46;;;;;;;9.27;4.13;;;;;;;24.82;50.25;101225.34;16117841;19;130285;-58
2023/09/11 22:31:09;;;;;;;7.50;3.50;;;;;;;24.81;49.91;101210.53;16115882;19;130273;-58
2023/09/11 22:36:31;;;;;;;6.15;3.63;;;;;;;24.80;50.03;101239.63;16113678;19;134189;-58
2023/09/11 22:41:53;;;;;;;6.50;3.88;;;;;;;24.78;49.92;101241.84;16109577;19;129919;-58
2023/09/11 22:47:15;;;;;;;6.10;3.80;;;;;;;24.77;50.19;101239.34;16108001;19;131089;-58
2023/09/11 22:52:38;;;;;;;7.30;3.95;;;;;;;24.76;50.02;101244.09;16108541;19;129516;-58
2023/09/11 22:58:02;;;;;;;5.45;4.00;;;;;;;24.74;50.23;101229.53;16107954;19;131428;-58
2023/09/11 23:03:41;;;;;;;5.43;3.73;;;;;;;24.73;50.07;101239.91;16110090;19;130560;-59
2023/09/11 23:09:04;;;;;;;4.80;3.50;;;;;;;24.71;50.36;101232.91;16105106;19;130833;-58
2023/09/11 23:14:26;;;;;;;5.53;3.30;;;;;;;24.69;50.42;101238.78;16111622;19;130278;-58
2023/09/11 23:19:48;;;;;;;6.65;3.58;;;;;;;24.69;50.30;101232.34;16111221;19;130539;-58
2023/09/11 23:25:12;;;;;;;5.78;3.70;;;;;;;24.68;50.28;101230.69;16112912;19;129633;-59
2023/09/11 23:30:34;;;;;;;5.85;3.55;;;;;;;24.67;50.42;101229.00;16108588;19;130575;-58
2023/09/11 23:35:56;;;;;;;4.88;3.28;;;;;;;24.66;49.90;101238.50;16110805;19;130108;-59
2023/09/11 23:41:18;;;;;;;3.63;2.95;;;;;;;24.65;50.05;101231.22;16107108;19;131385;-59
2023/09/11 23:46:40;;;;;;;4.00;3.13;;;;;;;24.64;50.29;101232.34;16108380;19;129453;-59
2023/09/11 23:52:02;;;;;;;4.68;3.30;;;;;;;24.62;50.16;101229.84;16110373;19;129527;-59
2023/09/11 23:57:44;;;;;;;3.40;3.00;;;;;;;24.63;50.12;101225.94;16126855;19;129897;-59
